Airfield :
LOGIN :

Register | Disclaimer

   EN    FR    IT 

 










Legend :    VFR   Marginal VFR   IFR   Intensive IFR   Very Intensive IFR
Visi :
Ceiling :
>= 8 km
>= 3000ft
5 to 8 km
1000 to 3000 ft
1500m to 5 km
500 to 1000 ft
800 to 1500m
200 to 500 ft
< 800m
< 200 ft
Symbols :   Thunderstorms  Fog  Heavy snow  Heavy precipitations  Wind > 20 kt
SIGMETs :     Misc.  Thunderstorms  Icing  Turbulence  Mountain Waves  Volcanic Ashes







- Airport Elevation : 479 ft
- IATA code : DOL
- Download approach charts


LFRG - Deauville

CURRENT METAR :
  • 240700Z AUTO 25007KT 8000 OVC003 15/15 Q1022 TEMPO 4000 BR BECMG BKN015

EXPIRED METARs :
  • 240630Z AUTO 24008KT 6000 OVC003 15/15 Q1022 TEMPO 4000 BR BECMG BKN015
  • 240600Z AUTO 25006KT 220V280 9999 OVC003 15/15 Q1022 TEMPO 4000 BR
  • 240530Z AUTO 25007KT 220V280 9999 OVC004 15/15 Q1022 TEMPO 4000 BR
  • 240500Z AUTO 25008KT 9999 OVC003 15/15 Q1022
  • 240430Z AUTO 25009KT 9999 OVC003 15/15 Q1022

TAF TAF LFRG
Valid from the 24 at 06:00 until the 24 at 15:00 UTC


240500Z 2406/2415 22010KT 9999 BKN003
TEMPO 2406/2408 4000 BR
BECMG 2408/2410 BKN015
BECMG 2412/2414 BKN020
ATIS : +33 2 31 65 65 36
No reported NOTAMs for that airfield.



MET'MAP, your aeronautical weather chart ! - Copyright ORBIFLY December 2007 - Disclaimer

ORBIFLY MET'MAP TEAM :

Programming & Development : Alexandra Zaïnal
Concept & Development : Baudouin d'Aumeries
Co-Development & Prog : Marc-Olivier Méhu
Technical & hardware support : Manuel Goepfert

Contact : metmap@orbifly.com




SOURCES & CREDITS :

   NOAA